Terminal Aerodrome Forecast
Issued by NWS Jackson, KY

Home | Current Version | Previous Version | Text Only | Print | Product List | Glossary On
Versions: 1 2 3 4 5 6 7 8 9 10 11 12 13 14 15
000
FTUS43 KJKL 030533
TAFJKL
TAF
KJKL 030533Z 0306/0406 VRB03KT 6SM BR FEW250
     FM030900 00000KT 4SM BR FEW250
     FM031030 00000KT 1SM BR VV003
     FM031130 00000KT 3SM BR SCT002
     FM031300 00000KT P6SM FEW250
     FM031500 VRB03KT P6SM SCT050=

USA.gov is the U.S. government's official web portal to all federal, state and local government web resources and services.